Terminal Aerodrome Forecast
Issued by NWS Charleston, WV

Current Version | Previous Version | Graphics & Text | Print | Product List | Glossary On
Versions: 1 2 3 4 5 6 7 8 9 10 11 12 13 14 15 16 17 18 19 20 21 22 23 24 25 26 27 28
000
FTUS41 KRLX 181700
TAFEKN
TAF
KEKN 181732Z 1818/1918 33005KT P6SM BKN250
     FM190400 00000KT 4SM BR SCT060
     FM190500 00000KT 1SM BR SCT001 SCT060
     FM190600 00000KT 4SM BR BKN060
     FM191200 VRB04KT P6SM SCT060=

USA.gov is the U.S. government's official web portal to all federal, state and local government web resources and services.